createdAt,value
2019-03-23T00:02:08.984Z,11.58
2019-03-23T00:04:39.999Z,11.52
2019-03-23T00:07:11.088Z,11.49
2019-03-23T00:09:42.088Z,11.54
2019-03-23T00:12:13.068Z,11.52
2019-03-23T00:14:44.162Z,11.57
2019-03-23T00:17:15.202Z,11.55
2019-03-23T00:19:46.555Z,11.46
2019-03-23T00:22:17.565Z,11.47
2019-03-23T00:24:48.899Z,11.44
2019-03-23T00:27:19.890Z,11.41
2019-03-23T00:29:50.876Z,11.35
2019-03-23T00:32:22.112Z,11.31
2019-03-23T00:34:53.101Z,11.31
2019-03-23T00:37:24.557Z,11.27
2019-03-23T00:39:56.042Z,11.26
2019-03-23T00:42:27.036Z,11.26
2019-03-23T00:44:58.378Z,11.20
2019-03-23T00:47:29.407Z,11.18
2019-03-23T00:50:00.395Z,11.14
2019-03-23T00:52:31.385Z,11.08
2019-03-23T00:55:02.418Z,11.00
2019-03-23T00:57:33.667Z,10.98
2019-03-23T01:00:04.779Z,10.98
2019-03-23T01:02:35.969Z,10.91
2019-03-23T01:05:07.525Z,10.82
2019-03-23T01:07:38.527Z,10.80
2019-03-23T01:10:11.221Z,10.79
2019-03-23T01:12:43.027Z,10.73
2019-03-23T01:15:14.429Z,10.70
2019-03-23T01:17:45.435Z,10.97
2019-03-23T01:20:16.551Z,11.18
2019-03-23T01:22:47.544Z,11.36
2019-03-23T01:25:20.810Z,11.40
2019-03-23T01:27:51.279Z,11.44
2019-03-23T01:30:22.271Z,11.57
2019-03-23T01:32:53.307Z,11.63
2019-03-23T01:35:24.671Z,11.69
2019-03-23T01:37:55.663Z,11.69
2019-03-23T01:40:26.673Z,11.64
2019-03-23T01:42:57.660Z,11.78
2019-03-23T01:45:29.057Z,11.71
2019-03-23T01:48:00.055Z,11.64
2019-03-23T01:50:31.045Z,11.55
2019-03-23T01:53:02.083Z,11.47
2019-03-23T01:55:33.076Z,11.38
2019-03-23T01:58:04.077Z,11.26
2019-03-23T02:00:35.531Z,11.16
2019-03-23T02:03:06.516Z,11.09
2019-03-23T02:05:37.915Z,10.99
2019-03-23T02:08:08.947Z,10.95
2019-03-23T02:10:41.866Z,10.88
2019-03-23T02:13:13.119Z,10.75
2019-03-23T02:15:44.238Z,10.67
2019-03-23T02:18:15.683Z,10.71
2019-03-23T02:20:46.669Z,10.77
2019-03-23T02:23:17.982Z,10.65
2019-03-23T02:25:48.971Z,10.62
2019-03-23T02:28:20.418Z,10.54
2019-03-23T02:30:51.405Z,10.53
2019-03-23T02:33:22.420Z,10.45
2019-03-23T02:35:54.406Z,10.43
2019-03-23T02:38:25.734Z,10.42
2019-03-23T02:40:57.031Z,10.33
2019-03-23T02:43:28.141Z,10.38
2019-03-23T02:45:59.527Z,10.39
2019-03-23T02:48:30.560Z,10.31
2019-03-23T02:51:02.332Z,10.38
2019-03-23T02:53:33.317Z,10.35
2019-03-23T02:56:04.420Z,10.35
2019-03-23T02:58:35.834Z,10.28
2019-03-23T03:01:06.816Z,10.22
2019-03-23T03:03:37.941Z,10.16
2019-03-23T03:06:09.317Z,10.11
2019-03-23T03:08:40.321Z,10.06
2019-03-23T03:11:11.744Z,10.11
2019-03-23T03:13:43.142Z,10.05
2019-03-23T03:16:14.186Z,10.09
2019-03-23T03:18:45.207Z,10.09
2019-03-23T03:21:16.599Z,10.07
2019-03-23T03:23:48.360Z,10.12
2019-03-23T03:26:19.359Z,10.13
2019-03-23T03:28:50.479Z,10.10
2019-03-23T03:31:21.438Z,10.03
2019-03-23T03:33:52.417Z,10.09
2019-03-23T03:36:23.449Z,10.01
2019-03-23T03:38:54.432Z,9.99
2019-03-23T03:41:25.767Z,9.95
2019-03-23T03:43:56.742Z,9.84
2019-03-23T03:46:28.160Z,9.82
2019-03-23T03:49:11.751Z,9.81
2019-03-23T03:51:31.829Z,9.81
2019-03-23T03:54:02.837Z,9.81
2019-03-23T03:56:33.856Z,9.74
2019-03-23T03:59:04.833Z,9.74
2019-03-23T04:01:35.815Z,9.77
2019-03-23T04:04:07.140Z,9.75
2019-03-23T04:06:38.118Z,9.70
2019-03-23T04:09:09.105Z,9.65
2019-03-23T04:11:40.155Z,9.69
2019-03-23T04:14:11.142Z,9.68
2019-03-23T04:16:42.151Z,9.60
2019-03-23T04:19:13.126Z,9.56
2019-03-23T04:21:44.148Z,9.48
2019-03-23T04:24:15.128Z,9.38
2019-03-23T04:26:46.194Z,9.37
2019-03-23T04:29:17.300Z,9.29
2019-03-23T04:31:48.281Z,9.23
2019-03-23T04:34:19.304Z,9.21
2019-03-23T04:36:50.288Z,9.17
2019-03-23T04:39:21.268Z,9.13
2019-03-23T04:41:52.300Z,9.08
2019-03-23T04:44:23.278Z,9.06
2019-03-23T04:46:54.255Z,9.01
2019-03-23T04:49:25.283Z,8.93
2019-03-23T04:51:56.274Z,8.93
2019-03-23T04:54:27.253Z,8.95
2019-03-23T04:56:58.277Z,8.93
2019-03-23T04:59:29.253Z,9.00
2019-03-23T05:02:00.288Z,9.11
2019-03-23T05:04:31.642Z,9.19
2019-03-23T05:07:02.619Z,9.27
2019-03-23T05:09:33.642Z,9.38
2019-03-23T05:12:04.762Z,9.36
2019-03-23T05:14:35.738Z,9.32
2019-03-23T05:17:06.783Z,9.31
2019-03-23T05:19:37.766Z,9.36
2019-03-23T05:22:09.051Z,9.29
2019-03-23T05:24:40.076Z,9.20
2019-03-23T05:27:11.051Z,9.21
2019-03-23T05:29:42.032Z,9.16
2019-03-23T05:32:13.075Z,9.08
2019-03-23T05:34:44.218Z,9.10
2019-03-23T05:37:15.927Z,9.10
2019-03-23T05:39:47.306Z,9.13
2019-03-23T05:42:18.627Z,9.15
2019-03-23T05:44:49.640Z,9.23
2019-03-23T05:47:20.672Z,9.16
2019-03-23T05:49:52.068Z,9.19
2019-03-23T05:52:23.326Z,9.15
2019-03-23T05:54:54.370Z,9.12
2019-03-23T05:57:25.710Z,9.10
2019-03-23T05:59:56.737Z,9.07
2019-03-23T06:02:27.719Z,9.08
2019-03-23T06:04:58.708Z,8.98
2019-03-23T06:07:30.090Z,8.96
2019-03-23T06:10:01.067Z,8.87
2019-03-23T06:12:32.088Z,8.83
2019-03-23T06:15:04.352Z,8.82
2019-03-23T06:17:36.436Z,8.77
2019-03-23T06:20:08.454Z,8.70
2019-03-23T06:22:39.491Z,8.64
2019-03-23T06:25:10.679Z,8.57
2019-03-23T06:27:41.656Z,8.56
2019-03-23T06:30:12.904Z,8.68
2019-03-23T06:32:44.224Z,8.63
2019-03-23T06:35:15.671Z,8.66
2019-03-23T06:37:46.720Z,8.65
2019-03-23T06:40:17.702Z,8.66
2019-03-23T06:42:59.160Z,8.70
2019-03-23T06:45:21.580Z,8.67
2019-03-23T06:47:52.563Z,8.62
2019-03-23T06:50:23.548Z,8.59
2019-03-23T06:52:54.636Z,8.57
2019-03-23T06:55:25.960Z,8.57
2019-03-23T06:57:57.624Z,8.62
2019-03-23T07:00:28.659Z,8.72
2019-03-23T07:02:59.651Z,8.70
2019-03-23T07:05:30.739Z,8.64
2019-03-23T07:08:02.098Z,8.67
2019-03-23T07:10:33.089Z,8.77
2019-03-23T07:13:04.064Z,8.72
2019-03-23T07:15:35.127Z,8.65
2019-03-23T07:18:06.115Z,8.61
2019-03-23T07:20:37.100Z,8.56
2019-03-23T07:23:08.130Z,8.53
2019-03-23T07:25:39.817Z,8.57
2019-03-23T07:28:10.804Z,8.61
2019-03-23T07:30:41.969Z,8.59
2019-03-23T07:33:12.922Z,8.58
2019-03-23T07:35:44.197Z,8.68
2019-03-23T07:38:15.581Z,8.77
2019-03-23T07:40:46.667Z,8.82
2019-03-23T07:43:18.089Z,8.85
2019-03-23T07:45:49.266Z,8.90
2019-03-23T07:48:20.922Z,8.98
2019-03-23T07:50:51.905Z,8.95
2019-03-23T07:53:22.938Z,8.85
2019-03-23T07:55:53.934Z,8.78
2019-03-23T07:58:24.924Z,8.79
2019-03-23T08:00:56.296Z,8.81
2019-03-23T08:03:27.317Z,8.86
2019-03-23T08:05:58.662Z,8.71
2019-03-23T08:08:29.948Z,8.70
2019-03-23T08:11:00.918Z,8.74
2019-03-23T08:13:32.050Z,8.74
2019-03-23T08:16:03.569Z,8.78
2019-03-23T08:18:34.910Z,8.79
2019-03-23T08:21:05.923Z,8.80
2019-03-23T08:23:37.069Z,8.80
2019-03-23T08:26:08.446Z,8.73
2019-03-23T08:28:39.433Z,8.77
2019-03-23T08:31:10.399Z,8.92
2019-03-23T08:33:41.431Z,8.96
2019-03-23T08:36:13.313Z,8.92
2019-03-23T08:38:44.305Z,8.96
2019-03-23T08:41:15.328Z,8.92
2019-03-23T08:43:46.666Z,8.91
2019-03-23T08:46:18.115Z,8.94
2019-03-23T08:48:49.119Z,8.93
2019-03-23T08:51:20.102Z,8.98
2019-03-23T08:53:51.139Z,8.92
2019-03-23T08:56:22.570Z,8.97
2019-03-23T08:58:55.462Z,9.05
2019-03-23T09:01:27.153Z,9.11
2019-03-23T09:03:58.158Z,9.08
2019-03-23T09:06:29.148Z,9.18
2019-03-23T09:09:00.183Z,9.16
2019-03-23T09:11:31.538Z,9.30
2019-03-23T09:14:02.524Z,9.31
2019-03-23T09:16:33.575Z,9.36
2019-03-23T09:19:04.974Z,9.40
2019-03-23T09:21:35.953Z,9.34
2019-03-23T09:24:07.042Z,9.49
2019-03-23T09:26:38.016Z,9.40
2019-03-23T09:29:08.994Z,9.40
2019-03-23T09:31:40.017Z,9.44
2019-03-23T09:34:11.490Z,9.49
2019-03-23T09:36:42.755Z,9.49
2019-03-23T09:39:13.734Z,9.59
2019-03-23T09:41:44.745Z,9.63
2019-03-23T09:44:15.717Z,9.64
2019-03-23T09:46:47.129Z,9.66
2019-03-23T09:49:18.270Z,9.79
2019-03-23T09:51:49.251Z,9.79
2019-03-23T09:54:20.291Z,9.71
2019-03-23T09:56:51.270Z,9.73
2019-03-23T09:59:22.247Z,9.65
2019-03-23T10:01:53.282Z,9.73
2019-03-23T10:04:24.274Z,9.71
2019-03-23T10:06:55.258Z,9.73
2019-03-23T10:09:26.283Z,9.64
2019-03-23T10:11:59.126Z,9.73
2019-03-23T10:14:29.949Z,9.70
2019-03-23T10:17:01.282Z,9.61
2019-03-23T10:19:32.682Z,9.62
2019-03-23T10:22:03.832Z,9.56
2019-03-23T10:24:34.837Z,9.54
2019-03-23T10:27:05.919Z,9.52
2019-03-23T10:29:37.266Z,9.47
2019-03-23T10:32:08.621Z,9.56
2019-03-23T10:34:39.648Z,9.53
2019-03-23T10:37:11.341Z,9.59
2019-03-23T10:39:42.299Z,9.72
2019-03-23T10:42:16.125Z,9.71
2019-03-23T10:44:46.694Z,9.72
2019-03-23T10:47:17.714Z,9.67
2019-03-23T10:49:48.728Z,9.69
2019-03-23T10:52:19.750Z,9.65
2019-03-23T10:54:50.755Z,9.67
2019-03-23T10:57:21.735Z,9.52
2019-03-23T10:59:52.748Z,9.56
2019-03-23T11:02:23.739Z,9.53
2019-03-23T11:04:54.771Z,9.61
2019-03-23T11:07:25.753Z,9.64
2019-03-23T11:09:56.738Z,9.74
2019-03-23T11:12:27.774Z,9.75
2019-03-23T11:14:58.787Z,9.88
2019-03-23T11:17:29.828Z,9.79
2019-03-23T11:20:00.868Z,9.85
2019-03-23T11:22:31.847Z,9.88
2019-03-23T11:25:02.834Z,9.90
2019-03-23T11:27:34.203Z,9.80
2019-03-23T11:30:06.089Z,9.77
2019-03-23T11:32:37.454Z,9.76
2019-03-23T11:35:08.767Z,9.86
2019-03-23T11:37:40.025Z,9.83
2019-03-23T11:40:11.362Z,9.89
2019-03-23T11:42:49.976Z,9.76
2019-03-23T11:45:15.649Z,9.80
2019-03-23T11:47:46.670Z,9.76
2019-03-23T11:50:17.669Z,9.81
2019-03-23T11:52:48.851Z,9.66
2019-03-23T11:55:19.996Z,9.68
2019-03-23T11:57:50.984Z,9.63
2019-03-23T12:00:22.287Z,9.64
2019-03-23T12:02:53.602Z,9.72
2019-03-23T12:05:24.682Z,9.76
2019-03-23T12:07:56.061Z,9.81
2019-03-23T12:10:27.098Z,9.83
2019-03-23T12:12:58.154Z,9.88
2019-03-23T12:15:30.930Z,9.96
2019-03-23T12:18:02.711Z,10.08
2019-03-23T12:20:34.218Z,10.12
2019-03-23T12:23:05.468Z,10.19
2019-03-23T12:25:36.514Z,10.22
2019-03-23T12:28:07.553Z,10.32
2019-03-23T12:30:38.530Z,10.28
2019-03-23T12:33:09.672Z,10.42
2019-03-23T12:35:40.670Z,10.33
2019-03-23T12:38:11.667Z,10.37
2019-03-23T12:40:42.706Z,10.36
2019-03-23T12:43:13.696Z,10.47
2019-03-23T12:45:44.974Z,10.58
2019-03-23T12:48:16.010Z,10.77
2019-03-23T12:50:46.992Z,10.84
2019-03-23T12:53:17.982Z,10.88
2019-03-23T12:55:49.779Z,10.99
2019-03-23T12:58:22.814Z,11.05
2019-03-23T13:00:53.507Z,10.85
2019-03-23T13:03:24.882Z,10.85
2019-03-23T13:05:55.858Z,10.86
2019-03-23T13:08:26.901Z,10.98
2019-03-23T13:10:57.897Z,10.90
2019-03-23T13:13:29.292Z,11.03
2019-03-23T13:16:00.736Z,11.06
2019-03-23T13:18:32.039Z,11.18
2019-03-23T13:21:03.306Z,11.31
2019-03-23T13:23:34.836Z,11.52
2019-03-23T13:26:05.831Z,11.65
2019-03-23T13:28:36.833Z,11.65
2019-03-23T13:31:08.357Z,11.70
2019-03-23T13:33:41.375Z,11.90
2019-03-23T13:36:14.575Z,12.07
2019-03-23T13:38:45.991Z,12.03
2019-03-23T13:41:16.987Z,12.04
2019-03-23T13:43:48.040Z,12.49
2019-03-23T13:46:19.027Z,12.87
2019-03-23T13:48:50.268Z,13.04
2019-03-23T13:51:21.331Z,13.10
2019-03-23T13:53:52.796Z,12.95
2019-03-23T13:56:24.117Z,13.06
2019-03-23T13:58:55.650Z,12.93
2019-03-23T14:01:26.822Z,13.10
2019-03-23T14:03:57.862Z,13.44
2019-03-23T14:06:28.909Z,13.35
2019-03-23T14:09:00.091Z,13.54
2019-03-23T14:11:32.191Z,13.25
2019-03-23T14:14:03.900Z,13.05
2019-03-23T14:16:34.891Z,13.02
2019-03-23T14:19:06.068Z,12.86
2019-03-23T14:21:37.379Z,12.89
2019-03-23T14:24:09.597Z,12.97
2019-03-23T14:26:40.697Z,13.11
2019-03-23T14:29:11.846Z,13.24
2019-03-23T14:31:43.335Z,13.10
2019-03-23T14:34:14.384Z,13.04
2019-03-23T14:36:45.424Z,12.93
2019-03-23T14:39:16.409Z,12.97
2019-03-23T14:41:47.441Z,12.99
2019-03-23T14:44:18.479Z,13.02
2019-03-23T14:46:50.761Z,12.91
2019-03-23T14:49:21.971Z,12.98
2019-03-23T14:51:53.412Z,13.01
2019-03-23T14:54:26.301Z,13.02
2019-03-23T14:56:57.329Z,12.99
2019-03-23T14:59:28.502Z,12.88
2019-03-23T15:01:59.913Z,12.87
2019-03-23T15:04:31.003Z,12.71
2019-03-23T15:07:02.034Z,12.73
2019-03-23T15:09:33.826Z,12.73
2019-03-23T15:12:14.550Z,12.70
2019-03-23T15:14:37.947Z,12.71
2019-03-23T15:17:09.041Z,12.71
2019-03-23T15:19:40.768Z,12.60
2019-03-23T15:22:11.814Z,12.53
2019-03-23T15:24:42.800Z,12.57
2019-03-23T15:27:14.179Z,12.64
2019-03-23T15:29:45.555Z,12.52
2019-03-23T15:32:18.080Z,12.43
2019-03-23T15:34:49.255Z,12.46
2019-03-23T15:37:20.696Z,12.47
2019-03-23T15:39:51.684Z,12.38
2019-03-23T15:42:25.014Z,12.34
2019-03-23T15:44:55.527Z,12.34
2019-03-23T15:47:26.620Z,12.37
2019-03-23T15:49:59.179Z,12.33
2019-03-23T15:52:30.219Z,12.38
2019-03-23T15:55:03.135Z,12.28
2019-03-23T15:57:33.910Z,12.26
2019-03-23T16:00:05.864Z,12.12
2019-03-23T16:02:36.851Z,12.06
2019-03-23T16:05:08.519Z,12.10
2019-03-23T16:07:39.951Z,12.01
2019-03-23T16:10:11.636Z,12.04
2019-03-23T16:12:42.634Z,11.98
2019-03-23T16:15:14.049Z,12.06
2019-03-23T16:17:45.051Z,12.06
2019-03-23T16:20:17.224Z,12.02
2019-03-23T16:22:48.273Z,11.95
2019-03-23T16:25:19.275Z,11.90
2019-03-23T16:27:50.268Z,11.88
2019-03-23T16:30:30.399Z,11.87
2019-03-23T16:33:01.856Z,11.83
2019-03-23T16:35:33.363Z,11.92
2019-03-23T16:38:04.819Z,11.93
2019-03-23T16:40:36.937Z,11.93
2019-03-23T16:43:08.024Z,11.97
2019-03-23T16:45:39.477Z,11.90
2019-03-23T16:48:10.587Z,11.87
2019-03-23T16:50:42.775Z,11.81
2019-03-23T16:53:14.214Z,11.83
2019-03-23T16:55:45.229Z,11.81
2019-03-23T16:58:17.866Z,11.85
2019-03-23T17:00:49.030Z,11.80
2019-03-23T17:03:21.437Z,11.72
2019-03-23T17:05:52.428Z,11.72
2019-03-23T17:08:23.807Z,11.67
2019-03-23T17:10:57.250Z,11.69
2019-03-23T17:13:28.639Z,11.63
2019-03-23T17:16:00.173Z,11.60
2019-03-23T17:18:31.491Z,11.64
2019-03-23T17:21:02.625Z,11.65
2019-03-23T17:23:34.096Z,11.60
2019-03-23T17:26:05.539Z,11.54
2019-03-23T17:28:36.922Z,11.54
2019-03-23T17:31:08.251Z,11.54
2019-03-23T17:33:39.553Z,11.48
2019-03-23T17:36:10.568Z,11.55
2019-03-23T17:38:41.612Z,11.43
2019-03-23T17:41:12.597Z,11.45
2019-03-23T17:43:43.671Z,11.38
2019-03-23T17:46:14.872Z,11.38
2019-03-23T17:48:46.269Z,11.33
2019-03-23T17:51:18.356Z,11.31
2019-03-23T17:53:58.307Z,11.28
2019-03-23T17:56:25.060Z,11.31
2019-03-23T17:58:56.213Z,11.30
2019-03-23T18:01:27.744Z,11.31
2019-03-23T18:03:59.068Z,11.28
2019-03-23T18:06:30.153Z,11.32
2019-03-23T18:09:01.158Z,11.25
2019-03-23T18:11:32.252Z,11.23
2019-03-23T18:14:03.641Z,11.23
2019-03-23T18:16:34.663Z,11.23
2019-03-23T18:19:05.667Z,11.21
2019-03-23T18:21:37.849Z,11.19
2019-03-23T18:24:08.963Z,11.17
2019-03-23T18:26:41.702Z,11.15
2019-03-23T18:29:12.700Z,11.14
2019-03-23T18:31:43.730Z,11.20
2019-03-23T18:34:15.038Z,11.24
2019-03-23T18:36:46.235Z,11.22
2019-03-23T18:39:17.686Z,11.09
2019-03-23T18:41:48.673Z,10.98
2019-03-23T18:44:19.680Z,10.90
2019-03-23T18:46:50.708Z,10.99
2019-03-23T18:49:21.700Z,10.86
2019-03-23T18:51:52.868Z,10.81
2019-03-23T18:54:23.907Z,10.86
2019-03-23T18:56:55.184Z,10.70
2019-03-23T18:59:27.207Z,10.61
2019-03-23T19:01:58.437Z,10.59
2019-03-23T19:04:31.006Z,10.62
2019-03-23T19:07:04.157Z,10.58
2019-03-23T19:09:35.227Z,10.51
2019-03-23T19:12:06.633Z,10.53
2019-03-23T19:14:37.670Z,10.52
2019-03-23T19:17:08.697Z,10.45
2019-03-23T19:19:39.728Z,10.46
2019-03-23T19:22:11.627Z,10.44
2019-03-23T19:24:42.741Z,10.39
2019-03-23T19:27:14.800Z,10.38
2019-03-23T19:29:45.916Z,10.33
2019-03-23T19:32:16.970Z,10.39
2019-03-23T19:34:47.999Z,10.30
2019-03-23T19:37:22.303Z,10.30
2019-03-23T19:39:53.499Z,10.35
2019-03-23T19:42:24.492Z,10.30
2019-03-23T19:44:55.641Z,10.27
2019-03-23T19:47:26.728Z,10.22
2019-03-23T19:49:57.716Z,10.21
2019-03-23T19:52:28.752Z,10.23
2019-03-23T19:55:00.271Z,10.16
2019-03-23T19:57:31.279Z,10.22
2019-03-23T20:00:02.446Z,10.19
2019-03-23T20:02:34.439Z,10.22
2019-03-23T20:05:26.179Z,10.16
2019-03-23T20:07:57.907Z,10.18
2019-03-23T20:10:32.299Z,10.15
2019-03-23T20:13:04.271Z,10.09
2019-03-23T20:15:35.445Z,10.00
2019-03-23T20:18:06.581Z,9.93
2019-03-23T20:20:37.738Z,9.92
2019-03-23T20:23:08.855Z,9.80
2019-03-23T20:25:40.011Z,9.83
2019-03-23T20:28:11.431Z,9.78
2019-03-23T20:30:42.475Z,9.76
2019-03-23T20:33:19.305Z,9.75
2019-03-23T20:35:46.352Z,9.82
2019-03-23T20:38:17.601Z,9.75
2019-03-23T20:40:48.627Z,9.65
2019-03-23T20:43:20.441Z,9.73
2019-03-23T20:45:51.782Z,9.72
2019-03-23T20:48:23.739Z,9.70
2019-03-23T20:50:56.890Z,9.63
2019-03-23T20:53:28.009Z,9.60
2019-03-23T20:55:59.473Z,9.59
2019-03-23T20:58:30.697Z,9.48
2019-03-23T21:01:01.683Z,9.60
2019-03-23T21:03:34.511Z,9.53
2019-03-23T21:06:05.602Z,9.48
2019-03-23T21:08:36.572Z,9.49
2019-03-23T21:11:07.606Z,9.41
2019-03-23T21:13:38.996Z,9.45
2019-03-23T21:16:10.094Z,9.44
2019-03-23T21:18:41.166Z,9.46
2019-03-23T21:21:12.846Z,9.37
2019-03-23T21:23:43.821Z,9.42
2019-03-23T21:26:16.452Z,9.42
2019-03-23T21:28:47.447Z,9.31
2019-03-23T21:31:19.003Z,9.25
2019-03-23T21:33:50.092Z,9.24
2019-03-23T21:36:21.796Z,9.23
2019-03-23T21:38:53.721Z,9.18
2019-03-23T21:41:26.420Z,9.12
2019-03-23T21:43:59.231Z,9.07
2019-03-23T21:46:30.213Z,9.02
2019-03-23T21:49:01.591Z,9.11
2019-03-23T21:51:32.571Z,9.07
2019-03-23T21:54:03.547Z,9.06
2019-03-23T21:56:34.971Z,9.06
2019-03-23T21:59:05.946Z,8.94
2019-03-23T22:01:37.322Z,8.97
2019-03-23T22:04:10.526Z,9.00
2019-03-23T22:06:41.507Z,9.04
2019-03-23T22:09:12.486Z,9.02
2019-03-23T22:11:45.935Z,9.03
2019-03-23T22:14:16.987Z,8.98
2019-03-23T22:16:47.980Z,8.89
2019-03-23T22:19:19.042Z,8.78
2019-03-23T22:21:50.481Z,8.81
2019-03-23T22:24:21.482Z,8.74
2019-03-23T22:26:52.931Z,8.76
2019-03-23T22:29:23.907Z,8.61
2019-03-23T22:31:55.354Z,8.52
2019-03-23T22:34:26.375Z,8.56
2019-03-23T22:36:57.351Z,8.47
2019-03-23T22:39:28.325Z,8.42
2019-03-23T22:41:59.376Z,8.39
2019-03-23T22:44:30.449Z,8.35
2019-03-23T22:47:01.422Z,8.38
2019-03-23T22:49:32.437Z,8.41
2019-03-23T22:52:03.404Z,8.31
2019-03-23T22:54:34.765Z,8.27
2019-03-23T22:57:05.802Z,8.13
2019-03-23T22:59:36.779Z,8.12
2019-03-23T23:02:07.755Z,8.13
2019-03-23T23:04:38.781Z,8.13
2019-03-23T23:07:09.757Z,8.09
2019-03-23T23:09:40.730Z,8.11
2019-03-23T23:12:11.756Z,8.03
2019-03-23T23:14:42.729Z,7.91
2019-03-23T23:17:13.710Z,7.77
2019-03-23T23:19:44.805Z,7.79
2019-03-23T23:22:16.157Z,7.82
2019-03-23T23:24:47.134Z,7.83
2019-03-23T23:27:18.156Z,7.77
2019-03-23T23:29:49.454Z,7.83
2019-03-23T23:32:20.421Z,7.64
2019-03-23T23:34:51.438Z,7.72
2019-03-23T23:37:22.408Z,7.73
2019-03-23T23:39:53.495Z,7.72
2019-03-23T23:42:24.904Z,7.66
2019-03-23T23:44:55.871Z,7.61
2019-03-23T23:47:26.893Z,7.55
2019-03-23T23:49:58.245Z,7.39
2019-03-23T23:52:29.694Z,7.36
2019-03-23T23:55:00.727Z,7.24
2019-03-23T23:57:32.183Z,7.19
